createdAt,value
2023-07-30T00:00:23.738Z,18.30
2023-07-30T00:02:53.097Z,18.41
2023-07-30T00:05:21.014Z,18.58
2023-07-30T00:07:48.933Z,18.85
2023-07-30T00:10:18.192Z,18.59
2023-07-30T00:12:46.111Z,18.01
2023-07-30T00:15:14.065Z,18.02
2023-07-30T00:17:42.012Z,18.10
2023-07-30T00:20:11.785Z,18.55
2023-07-30T00:22:39.442Z,18.00
2023-07-30T00:25:09.506Z,17.51
2023-07-30T00:27:37.352Z,17.92
2023-07-30T00:30:06.546Z,17.58
2023-07-30T00:32:34.556Z,17.45
2023-07-30T00:35:02.944Z,18.02
2023-07-30T00:37:32.427Z,17.57
2023-07-30T00:40:00.327Z,17.78
2023-07-30T00:42:28.138Z,17.70
2023-07-30T00:44:55.962Z,17.20
2023-07-30T00:47:24.552Z,17.18
2023-07-30T00:49:52.892Z,16.94
2023-07-30T00:52:23.455Z,17.07
2023-07-30T00:54:55.895Z,17.01
2023-07-30T00:57:24.195Z,16.98
2023-07-30T00:59:53.947Z,17.44
2023-07-30T01:02:23.032Z,17.38
2023-07-30T01:04:52.988Z,17.16
2023-07-30T01:07:20.979Z,16.82
2023-07-30T01:09:49.032Z,17.01
2023-07-30T01:12:18.434Z,16.60
2023-07-30T01:14:47.621Z,16.72
2023-07-30T01:17:16.162Z,16.69
2023-07-30T01:19:44.315Z,16.97
2023-07-30T01:22:13.558Z,16.62
2023-07-30T01:24:41.606Z,16.98
2023-07-30T01:27:16.794Z,16.84
2023-07-30T01:29:55.422Z,17.06
2023-07-30T01:32:31.468Z,16.58
2023-07-30T01:35:03.223Z,16.70
2023-07-30T01:37:33.204Z,16.70
2023-07-30T01:40:02.412Z,16.66
2023-07-30T01:42:31.492Z,16.91
2023-07-30T01:44:59.591Z,16.89
2023-07-30T01:47:27.837Z,17.04
2023-07-30T01:49:55.755Z,16.67
2023-07-30T01:52:23.593Z,16.86
2023-07-30T01:54:52.930Z,17.00
2023-07-30T01:57:20.863Z,16.89
2023-07-30T01:59:48.759Z,16.82
2023-07-30T02:02:16.679Z,16.78
2023-07-30T02:04:44.569Z,16.97
2023-07-30T02:07:12.528Z,17.01
2023-07-30T02:09:40.477Z,17.04
2023-07-30T02:12:10.840Z,16.99
2023-07-30T02:14:38.728Z,16.83
2023-07-30T02:17:07.289Z,16.82
2023-07-30T02:19:35.172Z,16.92
2023-07-30T02:22:03.149Z,16.42
2023-07-30T02:24:31.085Z,16.81
2023-07-30T02:26:59.140Z,16.50
2023-07-30T02:29:28.391Z,16.86
2023-07-30T02:31:56.526Z,16.68
2023-07-30T02:34:24.559Z,16.70
2023-07-30T02:36:52.515Z,16.81
2023-07-30T02:39:21.500Z,16.91
2023-07-30T02:41:49.404Z,16.84
2023-07-30T02:44:17.318Z,16.51
2023-07-30T02:46:46.572Z,16.78
2023-07-30T02:49:14.583Z,16.54
2023-07-30T02:51:44.371Z,16.50
2023-07-30T02:54:12.294Z,16.63
2023-07-30T02:56:40.210Z,16.89
2023-07-30T02:59:08.284Z,16.91
2023-07-30T03:01:37.394Z,16.73
2023-07-30T03:04:07.633Z,16.38
2023-07-30T03:06:35.291Z,16.60
2023-07-30T03:09:03.836Z,16.93
2023-07-30T03:11:31.980Z,16.61
2023-07-30T03:13:59.988Z,16.66
2023-07-30T03:16:27.906Z,16.68
2023-07-30T03:18:55.883Z,16.97
2023-07-30T03:21:25.171Z,16.75
2023-07-30T03:23:53.120Z,16.99
2023-07-30T03:26:21.030Z,16.92
2023-07-30T03:28:48.967Z,17.09
2023-07-30T03:31:16.914Z,16.97
2023-07-30T03:33:46.986Z,16.80
2023-07-30T03:36:15.907Z,16.71
2023-07-30T03:38:45.719Z,16.81
2023-07-30T03:41:13.580Z,16.93
2023-07-30T03:43:41.545Z,16.99
2023-07-30T03:46:09.495Z,16.68
2023-07-30T03:48:39.477Z,16.85
2023-07-30T03:51:08.293Z,16.86
2023-07-30T03:53:36.358Z,16.81
2023-07-30T03:56:05.991Z,16.72
2023-07-30T03:58:34.003Z,16.59
2023-07-30T04:01:02.025Z,16.63
2023-07-30T04:03:30.169Z,16.97
2023-07-30T04:05:58.497Z,16.67
2023-07-30T04:08:26.420Z,16.73
2023-07-30T04:10:54.338Z,16.68
2023-07-30T04:13:23.914Z,16.89
2023-07-30T04:15:51.828Z,16.83
2023-07-30T04:18:20.854Z,16.90
2023-07-30T04:20:48.804Z,16.97
2023-07-30T04:23:16.793Z,17.00
2023-07-30T04:25:45.251Z,17.16
2023-07-30T04:28:13.247Z,16.90
2023-07-30T04:30:42.570Z,17.18
2023-07-30T04:33:10.627Z,17.22
2023-07-30T04:35:38.635Z,17.08
2023-07-30T04:38:06.653Z,17.20
2023-07-30T04:40:34.612Z,17.00
2023-07-30T04:43:02.578Z,17.20
2023-07-30T04:45:30.444Z,17.13
2023-07-30T04:47:59.761Z,16.78
2023-07-30T04:50:27.732Z,16.89
2023-07-30T04:52:55.598Z,16.84
2023-07-30T04:55:23.467Z,16.85
2023-07-30T04:57:51.765Z,17.24
2023-07-30T05:00:19.921Z,17.42
2023-07-30T05:02:47.878Z,17.74
2023-07-30T05:05:17.346Z,17.69
2023-07-30T05:07:45.173Z,17.26
2023-07-30T05:10:13.151Z,17.72
2023-07-30T05:12:41.141Z,17.87
2023-07-30T05:15:09.891Z,18.05
2023-07-30T05:17:37.940Z,17.90
2023-07-30T05:20:07.659Z,17.79
2023-07-30T05:22:36.848Z,17.88
2023-07-30T05:25:05.178Z,17.88
2023-07-30T05:27:33.119Z,17.64
2023-07-30T05:30:00.985Z,17.92
2023-07-30T05:32:29.063Z,18.02
2023-07-30T05:34:56.944Z,18.19
2023-07-30T05:37:25.258Z,18.36
2023-07-30T05:39:54.630Z,18.21
2023-07-30T05:42:22.596Z,18.34
2023-07-30T05:44:50.683Z,18.42
2023-07-30T05:47:18.507Z,18.49
2023-07-30T05:49:46.392Z,18.60
2023-07-30T05:52:14.357Z,18.25
2023-07-30T05:54:42.194Z,18.32
2023-07-30T05:57:11.509Z,18.62
2023-07-30T05:59:39.597Z,18.08
2023-07-30T06:02:08.388Z,18.02
2023-07-30T06:04:36.350Z,18.40
2023-07-30T06:07:05.898Z,18.28
2023-07-30T06:09:34.338Z,18.09
2023-07-30T06:12:02.717Z,18.30
2023-07-30T06:14:32.025Z,18.31
2023-07-30T06:17:00.278Z,18.26
2023-07-30T06:19:28.492Z,18.22
2023-07-30T06:21:56.610Z,18.13
2023-07-30T06:24:24.743Z,18.07
2023-07-30T06:26:52.726Z,18.59
2023-07-30T06:29:20.746Z,18.15
2023-07-30T06:31:50.132Z,18.63
2023-07-30T06:34:17.943Z,18.71
2023-07-30T06:36:45.824Z,18.87
2023-07-30T06:39:14.093Z,19.15
2023-07-30T06:41:42.076Z,19.26
2023-07-30T06:44:11.346Z,19.49
2023-07-30T06:46:39.323Z,19.78
2023-07-30T06:49:08.877Z,20.54
2023-07-30T06:51:37.366Z,19.46
2023-07-30T06:54:06.066Z,19.39
2023-07-30T06:56:34.414Z,19.55
2023-07-30T06:59:02.499Z,19.62
2023-07-30T07:01:42.961Z,19.49
2023-07-30T07:04:12.712Z,19.78
2023-07-30T07:06:40.687Z,19.61
2023-07-30T07:09:08.600Z,19.58
2023-07-30T07:11:36.830Z,19.70
2023-07-30T07:14:04.792Z,20.13
2023-07-30T07:16:32.679Z,20.10
2023-07-30T07:19:03.630Z,20.22
2023-07-30T07:21:33.115Z,20.19
2023-07-30T07:24:01.104Z,20.83
2023-07-30T07:26:29.177Z,20.36
2023-07-30T07:28:58.076Z,20.43
2023-07-30T07:31:26.188Z,20.13
2023-07-30T07:33:54.062Z,19.95
2023-07-30T07:36:22.011Z,19.83
2023-07-30T07:38:51.374Z,19.63
2023-07-30T07:41:19.805Z,20.00
2023-07-30T07:43:49.646Z,19.76
2023-07-30T07:46:17.466Z,20.12
2023-07-30T07:48:46.296Z,20.08
2023-07-30T07:51:14.369Z,20.05
2023-07-30T07:53:42.296Z,20.19
2023-07-30T07:56:11.589Z,20.35
2023-07-30T07:58:39.698Z,20.84
2023-07-30T08:01:15.897Z,21.05
2023-07-30T08:03:43.909Z,20.62
2023-07-30T08:06:11.973Z,21.02
2023-07-30T08:08:40.155Z,20.78
2023-07-30T08:11:08.841Z,20.66
2023-07-30T08:13:53.240Z,21.35
2023-07-30T08:16:53.032Z,20.91
2023-07-30T08:19:20.898Z,20.82
2023-07-30T08:21:48.798Z,21.39
2023-07-30T08:24:16.782Z,21.27
2023-07-30T08:26:44.952Z,21.88
2023-07-30T08:29:14.905Z,22.08
2023-07-30T08:31:43.569Z,22.07
2023-07-30T08:34:11.459Z,21.90
2023-07-30T08:36:39.752Z,21.86
2023-07-30T08:39:07.937Z,21.82
2023-07-30T08:41:36.154Z,22.34
2023-07-30T08:44:04.789Z,22.28
2023-07-30T08:46:34.181Z,21.90
2023-07-30T08:49:02.252Z,21.66
2023-07-30T08:51:30.847Z,21.46
2023-07-30T08:54:02.470Z,21.08
2023-07-30T08:56:30.624Z,21.42
2023-07-30T08:59:00.772Z,21.92
2023-07-30T09:02:15.485Z,21.29
2023-07-30T09:04:49.005Z,20.97
2023-07-30T09:07:18.146Z,21.36
2023-07-30T09:09:57.108Z,21.51
2023-07-30T09:12:30.663Z,21.11
2023-07-30T09:15:00.742Z,21.14
2023-07-30T09:17:30.092Z,21.21
2023-07-30T09:20:01.541Z,21.31
2023-07-30T09:22:31.280Z,21.52
2023-07-30T09:24:59.900Z,21.47
2023-07-30T09:27:28.316Z,21.73
2023-07-30T09:29:59.031Z,21.18
2023-07-30T09:32:33.012Z,21.40
2023-07-30T09:35:08.147Z,20.86
2023-07-30T09:37:39.903Z,21.13
2023-07-30T09:40:10.544Z,20.95
2023-07-30T09:42:41.076Z,21.16
2023-07-30T09:45:18.369Z,20.68
2023-07-30T09:47:50.649Z,20.42
2023-07-30T09:50:19.161Z,20.35
2023-07-30T09:52:48.283Z,20.30
2023-07-30T09:56:01.718Z,20.34
2023-07-30T09:58:29.834Z,20.11
2023-07-30T10:01:01.544Z,19.92
2023-07-30T10:03:32.002Z,20.08
2023-07-30T10:06:05.536Z,20.26
2023-07-30T10:08:39.995Z,20.96
2023-07-30T10:11:12.391Z,20.82
2023-07-30T10:14:35.200Z,21.15
2023-07-30T10:17:03.543Z,21.38
2023-07-30T10:19:33.268Z,22.36
2023-07-30T10:22:26.420Z,22.67
2023-07-30T10:25:04.236Z,23.66
2023-07-30T10:27:53.385Z,24.29
2023-07-30T10:30:23.147Z,24.03
2023-07-30T10:33:03.997Z,23.48
2023-07-30T10:35:41.315Z,23.73
2023-07-30T10:38:21.486Z,22.77
2023-07-30T10:41:08.084Z,22.23
2023-07-30T10:43:42.433Z,22.15
2023-07-30T10:46:11.706Z,22.03
2023-07-30T10:48:41.862Z,22.79
2023-07-30T10:51:14.355Z,21.99
2023-07-30T10:53:44.712Z,22.25
2023-07-30T10:56:13.857Z,22.71
2023-07-30T10:58:41.746Z,22.83
2023-07-30T11:01:11.875Z,23.11
2023-07-30T11:03:40.388Z,22.97
2023-07-30T11:06:09.124Z,23.00
2023-07-30T11:08:40.712Z,22.78
2023-07-30T11:11:10.759Z,23.07
2023-07-30T11:13:39.704Z,24.10
2023-07-30T11:16:09.324Z,23.92
2023-07-30T11:18:38.769Z,23.72
2023-07-30T11:21:08.282Z,23.56
2023-07-30T11:23:40.201Z,23.25
2023-07-30T11:26:10.923Z,22.49
2023-07-30T11:28:41.245Z,22.65
2023-07-30T11:31:11.594Z,23.91
2023-07-30T11:33:43.504Z,24.12
2023-07-30T11:36:16.189Z,24.38
2023-07-30T11:38:48.001Z,23.75
2023-07-30T11:41:17.028Z,23.51
2023-07-30T11:43:46.468Z,24.21
2023-07-30T11:46:17.368Z,23.84
2023-07-30T11:48:47.981Z,22.42
2023-07-30T11:51:22.814Z,21.44
2023-07-30T11:53:54.574Z,21.34
2023-07-30T11:56:25.265Z,22.11
2023-07-30T11:58:58.409Z,23.11
2023-07-30T12:01:28.659Z,22.57
2023-07-30T12:03:57.810Z,23.10
2023-07-30T12:06:26.742Z,24.61
2023-07-30T12:08:56.092Z,24.42
2023-07-30T12:11:23.796Z,25.12
2023-07-30T12:13:52.481Z,24.54
2023-07-30T12:16:22.072Z,24.23
2023-07-30T12:18:50.456Z,23.59
2023-07-30T12:21:18.397Z,23.07
2023-07-30T12:23:47.253Z,23.43
2023-07-30T12:26:16.785Z,23.90
2023-07-30T12:28:44.751Z,23.49
2023-07-30T12:31:12.661Z,24.64
2023-07-30T12:33:40.775Z,24.85
2023-07-30T12:36:08.722Z,25.50
2023-07-30T12:38:36.716Z,24.53
2023-07-30T12:41:04.644Z,24.94
2023-07-30T12:43:34.414Z,24.85
2023-07-30T12:46:02.430Z,25.20
2023-07-30T12:48:30.947Z,24.21
2023-07-30T12:50:59.285Z,23.95
2023-07-30T12:53:27.282Z,24.03
2023-07-30T12:55:55.369Z,23.60
2023-07-30T12:58:23.604Z,24.03
2023-07-30T13:00:53.022Z,25.02
2023-07-30T13:03:21.021Z,25.32
2023-07-30T13:05:49.087Z,25.84
2023-07-30T13:08:17.100Z,25.63
2023-07-30T13:10:45.156Z,25.94
2023-07-30T13:13:13.166Z,25.66
2023-07-30T13:15:41.088Z,24.93
2023-07-30T13:18:10.643Z,25.19
2023-07-30T13:20:38.797Z,25.58
2023-07-30T13:23:06.718Z,25.49
2023-07-30T13:25:52.352Z,25.23
2023-07-30T13:28:20.460Z,24.93
2023-07-30T13:31:19.946Z,24.26
2023-07-30T13:33:49.923Z,23.46
2023-07-30T13:36:17.804Z,23.73
2023-07-30T13:38:45.784Z,23.29
2023-07-30T13:41:13.761Z,23.01
2023-07-30T13:43:41.950Z,22.77
2023-07-30T13:46:10.050Z,23.30
2023-07-30T13:48:38.497Z,22.89
2023-07-30T13:51:07.873Z,22.84
2023-07-30T13:53:39.595Z,22.69
2023-07-30T13:56:07.489Z,22.58
2023-07-30T13:58:35.380Z,22.40
2023-07-30T14:01:03.479Z,22.39
2023-07-30T14:03:31.614Z,21.87
2023-07-30T14:05:59.907Z,21.86
2023-07-30T14:08:29.179Z,22.20
2023-07-30T14:10:58.638Z,22.44
2023-07-30T14:13:29.205Z,22.72
2023-07-30T14:15:57.780Z,22.93
2023-07-30T14:18:26.994Z,22.81
2023-07-30T14:20:54.927Z,23.32
2023-07-30T14:23:22.796Z,23.36
2023-07-30T14:25:52.398Z,23.90
2023-07-30T14:28:20.481Z,23.00
2023-07-30T14:30:48.474Z,22.95
2023-07-30T14:33:16.543Z,23.09
2023-07-30T14:35:44.619Z,22.90
2023-07-30T14:38:13.876Z,23.24
2023-07-30T14:40:42.143Z,22.72
2023-07-30T14:43:11.584Z,22.30
2023-07-30T14:45:39.464Z,21.90
2023-07-30T14:48:07.536Z,21.93
2023-07-30T14:50:35.600Z,21.80
2023-07-30T14:53:04.082Z,22.18
2023-07-30T14:55:32.083Z,22.15
2023-07-30T14:58:01.706Z,22.20
2023-07-30T15:00:31.333Z,22.55
2023-07-30T15:02:59.276Z,22.71
2023-07-30T15:05:27.624Z,22.94
2023-07-30T15:07:55.597Z,22.91
2023-07-30T15:10:23.435Z,22.73
2023-07-30T15:12:51.332Z,22.99
2023-07-30T15:15:19.561Z,23.53
2023-07-30T15:17:48.962Z,23.33
2023-07-30T15:20:16.706Z,23.34
2023-07-30T15:22:44.688Z,23.11
2023-07-30T15:25:12.820Z,23.17
2023-07-30T15:27:40.714Z,23.31
2023-07-30T15:30:09.802Z,23.52
2023-07-30T15:32:44.938Z,23.27
2023-07-30T15:35:14.661Z,23.91
2023-07-30T15:37:44.620Z,23.55
2023-07-30T15:40:14.397Z,23.59
2023-07-30T15:42:42.653Z,23.86
2023-07-30T15:45:11.850Z,23.84
2023-07-30T15:47:39.706Z,23.38
2023-07-30T15:50:09.641Z,23.35
2023-07-30T15:52:40.499Z,23.53
2023-07-30T15:55:09.144Z,22.86
2023-07-30T15:57:37.038Z,22.74
2023-07-30T16:00:07.045Z,22.41
2023-07-30T16:02:35.918Z,22.54
2023-07-30T16:05:04.128Z,22.33
2023-07-30T16:07:32.072Z,21.98
2023-07-30T16:10:01.862Z,21.68
2023-07-30T16:12:46.185Z,21.61
2023-07-30T16:15:14.293Z,21.25
2023-07-30T16:17:42.197Z,21.58
2023-07-30T16:20:10.867Z,21.55
2023-07-30T16:22:39.061Z,21.66
2023-07-30T16:25:09.509Z,21.74
2023-07-30T16:27:48.795Z,21.94
2023-07-30T16:30:16.725Z,21.87
2023-07-30T16:32:45.091Z,22.12
2023-07-30T16:35:13.026Z,21.59
2023-07-30T16:37:40.872Z,21.67
2023-07-30T16:40:11.694Z,22.14
2023-07-30T16:42:39.585Z,21.58
2023-07-30T16:45:08.543Z,21.31
2023-07-30T16:47:42.447Z,21.46
2023-07-30T16:50:10.896Z,21.65
2023-07-30T16:52:38.736Z,21.73
2023-07-30T16:55:08.531Z,21.76
2023-07-30T16:57:37.884Z,21.92
2023-07-30T17:00:07.650Z,22.25
2023-07-30T17:02:36.122Z,21.78
2023-07-30T17:05:04.284Z,22.04
2023-07-30T17:07:32.342Z,21.92
2023-07-30T17:10:00.884Z,21.64
2023-07-30T17:12:28.685Z,21.73
2023-07-30T17:14:58.996Z,21.89
2023-07-30T17:17:26.926Z,21.28
2023-07-30T17:19:55.132Z,21.58
2023-07-30T17:22:23.167Z,21.46
2023-07-30T17:24:54.215Z,21.42
2023-07-30T17:28:49.421Z,21.50
2023-07-30T17:31:18.790Z,21.22
2023-07-30T17:33:46.696Z,21.40
2023-07-30T17:36:14.689Z,21.60
2023-07-30T17:38:42.599Z,21.24
2023-07-30T17:41:10.636Z,21.61
2023-07-30T17:43:39.772Z,21.35
2023-07-30T17:46:09.668Z,21.54
2023-07-30T17:48:38.986Z,21.52
2023-07-30T17:51:16.317Z,21.20
2023-07-30T17:53:46.753Z,21.08
2023-07-30T17:56:14.883Z,21.37
2023-07-30T17:58:42.880Z,21.28
2023-07-30T18:01:11.994Z,21.18
2023-07-30T18:03:41.243Z,21.04
2023-07-30T18:06:09.246Z,21.33
2023-07-30T18:08:37.214Z,21.42
2023-07-30T18:11:05.707Z,21.59
2023-07-30T18:13:34.029Z,21.44
2023-07-30T18:16:02.143Z,21.66
2023-07-30T18:18:30.268Z,21.54
2023-07-30T18:20:59.647Z,21.43
2023-07-30T18:23:27.686Z,21.18
2023-07-30T18:25:55.539Z,21.48
2023-07-30T18:28:23.528Z,21.72
2023-07-30T18:30:51.513Z,21.71
2023-07-30T18:33:19.495Z,21.22
2023-07-30T18:36:00.853Z,21.17
2023-07-30T18:38:28.945Z,20.80
2023-07-30T18:40:56.833Z,20.97
2023-07-30T18:43:24.755Z,20.67
2023-07-30T18:45:52.721Z,20.85
2023-07-30T18:48:20.600Z,20.42
2023-07-30T18:50:49.542Z,20.36
2023-07-30T18:53:18.970Z,20.45
2023-07-30T18:55:47.261Z,20.48
2023-07-30T18:58:15.623Z,20.19
2023-07-30T19:00:43.719Z,19.77
2023-07-30T19:03:13.042Z,19.87
2023-07-30T19:05:54.092Z,20.02
2023-07-30T19:08:23.396Z,19.82
2023-07-30T19:10:52.578Z,19.69
2023-07-30T19:13:20.625Z,19.66
2023-07-30T19:15:48.510Z,19.45
2023-07-30T19:18:16.974Z,19.55
2023-07-30T19:20:44.843Z,19.61
2023-07-30T19:23:12.893Z,19.57
2023-07-30T19:25:49.084Z,19.50
2023-07-30T19:28:18.282Z,19.57
2023-07-30T19:30:46.246Z,19.63
2023-07-30T19:33:15.654Z,19.53
2023-07-30T19:35:51.341Z,19.41
2023-07-30T19:39:38.558Z,19.50
2023-07-30T19:42:08.440Z,19.72
2023-07-30T19:44:36.485Z,19.50
2023-07-30T19:47:24.940Z,19.50
2023-07-30T19:49:53.385Z,19.43
2023-07-30T19:52:21.766Z,19.47
2023-07-30T19:54:56.032Z,19.54
2023-07-30T19:57:25.406Z,18.90
2023-07-30T19:59:53.588Z,18.89
2023-07-30T20:02:21.598Z,18.86
2023-07-30T20:04:49.471Z,19.22
2023-07-30T20:07:32.524Z,19.02
2023-07-30T20:10:00.568Z,19.03
2023-07-30T20:12:29.808Z,19.02
2023-07-30T20:14:57.895Z,18.78
2023-07-30T20:17:25.877Z,19.04
2023-07-30T20:19:53.855Z,18.82
2023-07-30T20:22:21.848Z,19.01
2023-07-30T20:24:49.792Z,19.08
2023-07-30T20:27:17.651Z,19.05
2023-07-30T20:29:46.906Z,18.78
2023-07-30T20:32:15.014Z,18.78
2023-07-30T20:34:43.147Z,18.93
2023-07-30T20:37:11.039Z,18.69
2023-07-30T20:39:38.968Z,18.60
2023-07-30T20:42:07.445Z,18.74
2023-07-30T20:44:35.334Z,18.37
2023-07-30T20:47:06.480Z,18.45
2023-07-30T20:49:34.592Z,18.46
2023-07-30T20:52:03.791Z,18.39
2023-07-30T20:54:31.718Z,18.23
2023-07-30T20:56:59.626Z,18.64
2023-07-30T20:59:28.200Z,18.59
2023-07-30T21:02:38.355Z,18.10
2023-07-30T21:05:07.581Z,18.36
2023-07-30T21:07:35.590Z,18.45
2023-07-30T21:10:03.934Z,18.31
2023-07-30T21:12:31.940Z,18.06
2023-07-30T21:15:02.999Z,18.29
2023-07-30T21:17:33.146Z,18.06
2023-07-30T21:20:02.481Z,18.02
2023-07-30T21:22:30.488Z,18.03
2023-07-30T21:24:58.450Z,18.08
2023-07-30T21:27:26.502Z,17.92
2023-07-30T21:29:54.428Z,18.09
2023-07-30T21:32:22.327Z,17.90
2023-07-30T21:34:50.311Z,18.01
2023-07-30T21:37:19.602Z,18.00
2023-07-30T21:39:47.518Z,18.08
2023-07-30T21:42:15.580Z,17.87
2023-07-30T21:44:44.092Z,17.95
2023-07-30T21:47:12.100Z,18.08
2023-07-30T21:49:40.028Z,17.77
2023-07-30T21:55:04.452Z,17.90
2023-07-30T21:57:32.346Z,17.86
2023-07-30T22:00:00.299Z,17.72
2023-07-30T22:02:28.733Z,17.64
2023-07-30T22:04:56.759Z,17.67
2023-07-30T22:07:24.955Z,17.38
2023-07-30T22:09:52.853Z,17.46
2023-07-30T22:12:22.209Z,17.51
2023-07-30T22:14:50.169Z,17.41
2023-07-30T22:17:18.093Z,17.38
2023-07-30T22:19:45.932Z,17.41
2023-07-30T22:22:14.062Z,17.47
2023-07-30T22:24:42.201Z,17.38
2023-07-30T22:27:10.311Z,17.29
2023-07-30T22:29:39.661Z,17.44
2023-07-30T22:32:08.231Z,17.55
2023-07-30T22:34:36.099Z,17.55
2023-07-30T22:37:04.344Z,17.42
2023-07-30T22:39:32.335Z,17.26
2023-07-30T22:42:00.537Z,17.24
2023-07-30T22:44:28.800Z,17.08
2023-07-30T22:46:58.192Z,17.33
2023-07-30T22:49:26.318Z,17.27
2023-07-30T22:51:54.253Z,17.24
2023-07-30T22:54:22.271Z,17.29
2023-07-30T22:56:50.193Z,17.37
2023-07-30T22:59:18.078Z,17.47
2023-07-30T23:01:46.016Z,17.33
2023-07-30T23:04:15.357Z,17.45
2023-07-30T23:06:43.270Z,17.33
2023-07-30T23:09:11.292Z,17.13
2023-07-30T23:11:40.327Z,17.01
2023-07-30T23:14:10.089Z,17.22
2023-07-30T23:16:38.728Z,17.36
2023-07-30T23:19:07.339Z,17.01
2023-07-30T23:21:36.612Z,17.10
2023-07-30T23:24:04.831Z,17.13
2023-07-30T23:26:32.779Z,17.05
2023-07-30T23:29:01.223Z,16.98
2023-07-30T23:31:29.145Z,17.13
2023-07-30T23:33:57.004Z,16.88
2023-07-30T23:36:24.927Z,16.79
2023-07-30T23:38:54.229Z,16.72
2023-07-30T23:41:22.167Z,16.73
2023-07-30T23:43:50.062Z,16.64
2023-07-30T23:46:17.913Z,16.62
2023-07-30T23:48:45.827Z,16.49
2023-07-30T23:51:13.889Z,16.80
2023-07-30T23:53:41.954Z,16.42
2023-07-30T23:56:11.287Z,16.57
2023-07-30T23:58:39.143Z,16.57
